sensor_id;sensor_type;location;lat;lon;timestamp;P1;durP1;ratioP1;P2;durP2;ratioP2
17345;SDS011;8790;53.590;10.002;2023-05-10T00:00:51;4.93;;;3.93;;
17345;SDS011;8790;53.590;10.002;2023-05-10T00:03:22;5.53;;;4.17;;
17345;SDS011;8790;53.590;10.002;2023-05-10T00:05:54;6.33;;;3.80;;
17345;SDS011;8790;53.590;10.002;2023-05-10T00:08:26;6.73;;;4.40;;
17345;SDS011;8790;53.590;10.002;2023-05-10T00:10:59;5.47;;;3.70;;
17345;SDS011;8790;53.590;10.002;2023-05-10T00:13:31;7.13;;;4.00;;
17345;SDS011;8790;53.590;10.002;2023-05-10T00:16:02;7.77;;;3.90;;
17345;SDS011;8790;53.590;10.002;2023-05-10T00:18:35;6.73;;;4.53;;
17345;SDS011;8790;53.590;10.002;2023-05-10T00:21:06;7.30;;;4.30;;
17345;SDS011;8790;53.590;10.002;2023-05-10T00:23:38;4.47;;;4.00;;
17345;SDS011;8790;53.590;10.002;2023-05-10T00:26:11;5.47;;;4.03;;
17345;SDS011;8790;53.590;10.002;2023-05-10T00:28:45;6.10;;;3.97;;
17345;SDS011;8790;53.590;10.002;2023-05-10T00:31:17;4.67;;;4.00;;
17345;SDS011;8790;53.590;10.002;2023-05-10T00:33:48;5.03;;;4.40;;
17345;SDS011;8790;53.590;10.002;2023-05-10T00:36:20;4.80;;;4.07;;
17345;SDS011;8790;53.590;10.002;2023-05-10T00:38:52;6.67;;;4.10;;
17345;SDS011;8790;53.590;10.002;2023-05-10T00:41:25;5.30;;;4.00;;
17345;SDS011;8790;53.590;10.002;2023-05-10T00:43:58;5.90;;;4.40;;
17345;SDS011;8790;53.590;10.002;2023-05-10T00:46:31;6.20;;;4.10;;
17345;SDS011;8790;53.590;10.002;2023-05-10T00:49:03;5.70;;;4.37;;
17345;SDS011;8790;53.590;10.002;2023-05-10T00:51:35;4.63;;;4.13;;
17345;SDS011;8790;53.590;10.002;2023-05-10T00:54:07;5.60;;;4.10;;
17345;SDS011;8790;53.590;10.002;2023-05-10T00:56:40;5.97;;;4.43;;
17345;SDS011;8790;53.590;10.002;2023-05-10T00:59:13;6.17;;;4.30;;
17345;SDS011;8790;53.590;10.002;2023-05-10T01:01:46;7.23;;;4.57;;
17345;SDS011;8790;53.590;10.002;2023-05-10T01:04:18;4.63;;;4.13;;
17345;SDS011;8790;53.590;10.002;2023-05-10T01:06:55;6.10;;;4.33;;
17345;SDS011;8790;53.590;10.002;2023-05-10T01:09:27;4.90;;;4.40;;
17345;SDS011;8790;53.590;10.002;2023-05-10T01:12:00;4.40;;;3.80;;
17345;SDS011;8790;53.590;10.002;2023-05-10T01:14:33;5.03;;;4.20;;
17345;SDS011;8790;53.590;10.002;2023-05-10T01:17:07;5.00;;;4.20;;
17345;SDS011;8790;53.590;10.002;2023-05-10T01:19:41;4.77;;;4.20;;
17345;SDS011;8790;53.590;10.002;2023-05-10T01:22:19;6.43;;;4.17;;
17345;SDS011;8790;53.590;10.002;2023-05-10T01:25:22;5.37;;;4.27;;
17345;SDS011;8790;53.590;10.002;2023-05-10T01:28:23;4.40;;;4.00;;
17345;SDS011;8790;53.590;10.002;2023-05-10T01:31:16;7.63;;;4.80;;
17345;SDS011;8790;53.590;10.002;2023-05-10T01:33:56;6.30;;;4.10;;
17345;SDS011;8790;53.590;10.002;2023-05-10T01:36:34;5.37;;;4.13;;
17345;SDS011;8790;53.590;10.002;2023-05-10T01:39:11;7.30;;;4.60;;
17345;SDS011;8790;53.590;10.002;2023-05-10T01:41:49;5.40;;;4.87;;
17345;SDS011;8790;53.590;10.002;2023-05-10T01:44:28;9.70;;;4.27;;
17345;SDS011;8790;53.590;10.002;2023-05-10T01:47:05;6.83;;;4.60;;
17345;SDS011;8790;53.590;10.002;2023-05-10T01:49:44;5.23;;;4.37;;
17345;SDS011;8790;53.590;10.002;2023-05-10T01:52:22;5.00;;;4.37;;
17345;SDS011;8790;53.590;10.002;2023-05-10T01:54:59;6.00;;;4.57;;
17345;SDS011;8790;53.590;10.002;2023-05-10T01:57:34;6.17;;;4.30;;
17345;SDS011;8790;53.590;10.002;2023-05-10T02:00:09;7.30;;;4.70;;
17345;SDS011;8790;53.590;10.002;2023-05-10T02:02:46;5.47;;;4.50;;
17345;SDS011;8790;53.590;10.002;2023-05-10T02:05:21;5.77;;;4.50;;
17345;SDS011;8790;53.590;10.002;2023-05-10T02:07:54;5.17;;;4.67;;
17345;SDS011;8790;53.590;10.002;2023-05-10T02:10:28;5.00;;;4.33;;
17345;SDS011;8790;53.590;10.002;2023-05-10T02:13:02;5.30;;;4.60;;
17345;SDS011;8790;53.590;10.002;2023-05-10T02:15:34;5.27;;;4.40;;
17345;SDS011;8790;53.590;10.002;2023-05-10T02:18:08;6.77;;;4.80;;
17345;SDS011;8790;53.590;10.002;2023-05-10T02:20:43;5.87;;;4.30;;
17345;SDS011;8790;53.590;10.002;2023-05-10T02:23:19;5.13;;;4.63;;
17345;SDS011;8790;53.590;10.002;2023-05-10T02:25:52;5.80;;;4.40;;
17345;SDS011;8790;53.590;10.002;2023-05-10T02:28:27;4.97;;;4.23;;
17345;SDS011;8790;53.590;10.002;2023-05-10T02:31:00;5.00;;;4.40;;
17345;SDS011;8790;53.590;10.002;2023-05-10T02:33:32;5.47;;;4.60;;
17345;SDS011;8790;53.590;10.002;2023-05-10T02:36:08;6.83;;;4.37;;
17345;SDS011;8790;53.590;10.002;2023-05-10T02:38:40;5.27;;;4.77;;
17345;SDS011;8790;53.590;10.002;2023-05-10T02:41:12;5.63;;;4.13;;
17345;SDS011;8790;53.590;10.002;2023-05-10T02:43:45;5.37;;;4.43;;
17345;SDS011;8790;53.590;10.002;2023-05-10T02:46:18;8.03;;;4.50;;
17345;SDS011;8790;53.590;10.002;2023-05-10T02:48:50;6.80;;;4.37;;
17345;SDS011;8790;53.590;10.002;2023-05-10T02:51:24;5.83;;;4.33;;
17345;SDS011;8790;53.590;10.002;2023-05-10T02:54:01;5.90;;;4.57;;
17345;SDS011;8790;53.590;10.002;2023-05-10T02:56:50;5.70;;;4.13;;
17345;SDS011;8790;53.590;10.002;2023-05-10T02:59:24;5.07;;;4.53;;
17345;SDS011;8790;53.590;10.002;2023-05-10T03:01:56;5.27;;;4.37;;
17345;SDS011;8790;53.590;10.002;2023-05-10T03:04:28;5.10;;;4.67;;
17345;SDS011;8790;53.590;10.002;2023-05-10T03:07:03;5.37;;;4.77;;
17345;SDS011;8790;53.590;10.002;2023-05-10T03:09:35;7.47;;;4.40;;
17345;SDS011;8790;53.590;10.002;2023-05-10T03:12:07;6.83;;;4.70;;
17345;SDS011;8790;53.590;10.002;2023-05-10T03:14:47;5.33;;;4.53;;
17345;SDS011;8790;53.590;10.002;2023-05-10T03:17:25;6.50;;;4.43;;
17345;SDS011;8790;53.590;10.002;2023-05-10T03:20:03;4.80;;;4.40;;
17345;SDS011;8790;53.590;10.002;2023-05-10T03:22:44;5.20;;;4.57;;
17345;SDS011;8790;53.590;10.002;2023-05-10T03:25:18;5.90;;;4.63;;
17345;SDS011;8790;53.590;10.002;2023-05-10T03:27:52;6.77;;;4.50;;
17345;SDS011;8790;53.590;10.002;2023-05-10T03:30:25;6.23;;;4.50;;
17345;SDS011;8790;53.590;10.002;2023-05-10T03:32:57;8.67;;;4.83;;
17345;SDS011;8790;53.590;10.002;2023-05-10T03:35:35;7.33;;;4.93;;
17345;SDS011;8790;53.590;10.002;2023-05-10T03:38:08;7.07;;;4.90;;
17345;SDS011;8790;53.590;10.002;2023-05-10T03:40:40;6.93;;;4.80;;
17345;SDS011;8790;53.590;10.002;2023-05-10T03:43:12;6.63;;;4.87;;
17345;SDS011;8790;53.590;10.002;2023-05-10T03:45:44;6.77;;;5.00;;
17345;SDS011;8790;53.590;10.002;2023-05-10T03:48:15;6.27;;;4.70;;
17345;SDS011;8790;53.590;10.002;2023-05-10T03:50:47;5.37;;;4.83;;
17345;SDS011;8790;53.590;10.002;2023-05-10T03:53:21;5.40;;;4.80;;
17345;SDS011;8790;53.590;10.002;2023-05-10T03:55:53;6.63;;;4.80;;
17345;SDS011;8790;53.590;10.002;2023-05-10T03:58:25;5.53;;;4.73;;
17345;SDS011;8790;53.590;10.002;2023-05-10T04:00:56;5.43;;;4.60;;
17345;SDS011;8790;53.590;10.002;2023-05-10T04:03:28;5.83;;;4.97;;
17345;SDS011;8790;53.590;10.002;2023-05-10T04:06:00;5.97;;;4.97;;
17345;SDS011;8790;53.590;10.002;2023-05-10T04:08:34;8.10;;;4.70;;
17345;SDS011;8790;53.590;10.002;2023-05-10T04:11:05;5.43;;;4.90;;
17345;SDS011;8790;53.590;10.002;2023-05-10T04:13:38;5.83;;;4.63;;
17345;SDS011;8790;53.590;10.002;2023-05-10T04:16:10;5.87;;;4.93;;
17345;SDS011;8790;53.590;10.002;2023-05-10T04:18:41;5.10;;;4.60;;
17345;SDS011;8790;53.590;10.002;2023-05-10T04:21:13;6.07;;;4.73;;
17345;SDS011;8790;53.590;10.002;2023-05-10T04:23:46;7.27;;;4.70;;
17345;SDS011;8790;53.590;10.002;2023-05-10T04:26:18;5.73;;;5.00;;
17345;SDS011;8790;53.590;10.002;2023-05-10T04:28:50;7.27;;;4.60;;
17345;SDS011;8790;53.590;10.002;2023-05-10T04:31:21;6.10;;;4.67;;
17345;SDS011;8790;53.590;10.002;2023-05-10T04:33:53;7.57;;;4.80;;
17345;SDS011;8790;53.590;10.002;2023-05-10T04:36:25;9.93;;;5.27;;
17345;SDS011;8790;53.590;10.002;2023-05-10T04:38:59;5.63;;;5.00;;
17345;SDS011;8790;53.590;10.002;2023-05-10T04:41:30;7.93;;;5.00;;
17345;SDS011;8790;53.590;10.002;2023-05-10T04:44:02;6.07;;;4.63;;
17345;SDS011;8790;53.590;10.002;2023-05-10T04:46:34;7.53;;;4.83;;
17345;SDS011;8790;53.590;10.002;2023-05-10T04:49:06;5.60;;;5.00;;
17345;SDS011;8790;53.590;10.002;2023-05-10T04:51:38;5.87;;;5.00;;
17345;SDS011;8790;53.590;10.002;2023-05-10T04:54:11;7.83;;;5.60;;
17345;SDS011;8790;53.590;10.002;2023-05-10T04:56:43;6.73;;;4.67;;
17345;SDS011;8790;53.590;10.002;2023-05-10T04:59:15;5.17;;;4.53;;
17345;SDS011;8790;53.590;10.002;2023-05-10T05:01:47;8.10;;;5.50;;
17345;SDS011;8790;53.590;10.002;2023-05-10T05:04:18;5.40;;;4.90;;
17345;SDS011;8790;53.590;10.002;2023-05-10T05:06:50;7.43;;;5.20;;
17345;SDS011;8790;53.590;10.002;2023-05-10T05:09:23;5.50;;;5.00;;
17345;SDS011;8790;53.590;10.002;2023-05-10T05:11:55;5.63;;;4.90;;
17345;SDS011;8790;53.590;10.002;2023-05-10T05:14:27;6.43;;;5.23;;
17345;SDS011;8790;53.590;10.002;2023-05-10T05:16:58;8.13;;;5.30;;
17345;SDS011;8790;53.590;10.002;2023-05-10T05:19:30;7.93;;;4.87;;
17345;SDS011;8790;53.590;10.002;2023-05-10T05:22:02;6.13;;;4.70;;
17345;SDS011;8790;53.590;10.002;2023-05-10T05:24:36;7.67;;;4.90;;
17345;SDS011;8790;53.590;10.002;2023-05-10T05:27:08;5.37;;;4.80;;
17345;SDS011;8790;53.590;10.002;2023-05-10T05:29:39;7.00;;;4.57;;
17345;SDS011;8790;53.590;10.002;2023-05-10T05:32:11;5.43;;;4.70;;
17345;SDS011;8790;53.590;10.002;2023-05-10T05:34:44;7.30;;;4.90;;
17345;SDS011;8790;53.590;10.002;2023-05-10T05:37:16;5.90;;;5.10;;
17345;SDS011;8790;53.590;10.002;2023-05-10T05:39:50;7.57;;;5.10;;
17345;SDS011;8790;53.590;10.002;2023-05-10T05:42:22;6.03;;;4.77;;
17345;SDS011;8790;53.590;10.002;2023-05-10T05:44:54;6.57;;;5.10;;
17345;SDS011;8790;53.590;10.002;2023-05-10T05:47:25;7.03;;;5.33;;
17345;SDS011;8790;53.590;10.002;2023-05-10T05:49:57;6.60;;;5.07;;
17345;SDS011;8790;53.590;10.002;2023-05-10T05:52:29;6.30;;;4.67;;
17345;SDS011;8790;53.590;10.002;2023-05-10T05:55:03;6.83;;;5.10;;
17345;SDS011;8790;53.590;10.002;2023-05-10T05:57:35;6.47;;;4.80;;
17345;SDS011;8790;53.590;10.002;2023-05-10T06:00:07;5.80;;;4.93;;
17345;SDS011;8790;53.590;10.002;2023-05-10T06:02:45;6.50;;;5.17;;
17345;SDS011;8790;53.590;10.002;2023-05-10T06:05:17;7.17;;;5.10;;
17345;SDS011;8790;53.590;10.002;2023-05-10T06:07:50;5.57;;;4.63;;
17345;SDS011;8790;53.590;10.002;2023-05-10T06:10:23;6.67;;;4.70;;
17345;SDS011;8790;53.590;10.002;2023-05-10T06:12:55;6.33;;;4.70;;
17345;SDS011;8790;53.590;10.002;2023-05-10T06:15:27;7.77;;;4.67;;
17345;SDS011;8790;53.590;10.002;2023-05-10T06:17:59;8.27;;;5.23;;
17345;SDS011;8790;53.590;10.002;2023-05-10T06:20:31;5.50;;;5.00;;
17345;SDS011;8790;53.590;10.002;2023-05-10T06:23:02;5.13;;;4.73;;
17345;SDS011;8790;53.590;10.002;2023-05-10T06:25:35;6.33;;;4.50;;
17345;SDS011;8790;53.590;10.002;2023-05-10T06:28:07;5.30;;;4.80;;
17345;SDS011;8790;53.590;10.002;2023-05-10T06:30:39;6.20;;;5.20;;
17345;SDS011;8790;53.590;10.002;2023-05-10T06:33:10;6.37;;;5.23;;
17345;SDS011;8790;53.590;10.002;2023-05-10T06:35:42;7.43;;;4.43;;
17345;SDS011;8790;53.590;10.002;2023-05-10T06:38:14;6.97;;;4.93;;
17345;SDS011;8790;53.590;10.002;2023-05-10T06:40:47;6.63;;;4.73;;
17345;SDS011;8790;53.590;10.002;2023-05-10T06:43:19;7.17;;;5.13;;
17345;SDS011;8790;53.590;10.002;2023-05-10T06:45:50;6.17;;;4.77;;
17345;SDS011;8790;53.590;10.002;2023-05-10T06:48:22;7.47;;;5.50;;
17345;SDS011;8790;53.590;10.002;2023-05-10T06:50:54;6.47;;;5.10;;
17345;SDS011;8790;53.590;10.002;2023-05-10T06:53:26;8.87;;;5.30;;
17345;SDS011;8790;53.590;10.002;2023-05-10T06:55:59;6.27;;;4.97;;
17345;SDS011;8790;53.590;10.002;2023-05-10T06:58:31;5.33;;;4.77;;
17345;SDS011;8790;53.590;10.002;2023-05-10T07:01:03;5.97;;;5.30;;
17345;SDS011;8790;53.590;10.002;2023-05-10T07:03:35;5.93;;;5.33;;
17345;SDS011;8790;53.590;10.002;2023-05-10T07:06:07;6.50;;;4.63;;
17345;SDS011;8790;53.590;10.002;2023-05-10T07:08:39;7.13;;;5.13;;
17345;SDS011;8790;53.590;10.002;2023-05-10T07:11:12;6.47;;;5.10;;
17345;SDS011;8790;53.590;10.002;2023-05-10T07:13:44;7.03;;;5.20;;
17345;SDS011;8790;53.590;10.002;2023-05-10T07:16:16;5.90;;;5.40;;
17345;SDS011;8790;53.590;10.002;2023-05-10T07:18:48;9.03;;;5.57;;
17345;SDS011;8790;53.590;10.002;2023-05-10T07:21:20;8.57;;;5.20;;
17345;SDS011;8790;53.590;10.002;2023-05-10T07:23:53;7.70;;;5.20;;
17345;SDS011;8790;53.590;10.002;2023-05-10T07:26:26;7.33;;;4.80;;
17345;SDS011;8790;53.590;10.002;2023-05-10T07:28:59;7.37;;;5.70;;
17345;SDS011;8790;53.590;10.002;2023-05-10T07:31:31;6.90;;;5.43;;
17345;SDS011;8790;53.590;10.002;2023-05-10T07:34:02;8.70;;;5.40;;
17345;SDS011;8790;53.590;10.002;2023-05-10T07:36:34;7.77;;;5.40;;
17345;SDS011;8790;53.590;10.002;2023-05-10T07:39:06;6.33;;;5.60;;
17345;SDS011;8790;53.590;10.002;2023-05-10T07:41:39;8.50;;;5.77;;
17345;SDS011;8790;53.590;10.002;2023-05-10T07:44:11;7.93;;;5.40;;
17345;SDS011;8790;53.590;10.002;2023-05-10T07:46:43;5.70;;;4.80;;
17345;SDS011;8790;53.590;10.002;2023-05-10T07:49:15;7.83;;;5.43;;
17345;SDS011;8790;53.590;10.002;2023-05-10T07:51:46;7.03;;;5.10;;
17345;SDS011;8790;53.590;10.002;2023-05-10T07:54:18;5.60;;;5.10;;
17345;SDS011;8790;53.590;10.002;2023-05-10T07:56:51;5.97;;;5.30;;
17345;SDS011;8790;53.590;10.002;2023-05-10T07:59:23;6.47;;;5.20;;
17345;SDS011;8790;53.590;10.002;2023-05-10T08:01:55;5.80;;;5.20;;
17345;SDS011;8790;53.590;10.002;2023-05-10T08:04:27;7.87;;;5.17;;
17345;SDS011;8790;53.590;10.002;2023-05-10T08:06:58;5.73;;;5.10;;
17345;SDS011;8790;53.590;10.002;2023-05-10T08:09:30;7.07;;;5.10;;
17345;SDS011;8790;53.590;10.002;2023-05-10T08:12:03;6.40;;;5.13;;
17345;SDS011;8790;53.590;10.002;2023-05-10T08:14:36;6.63;;;5.23;;
17345;SDS011;8790;53.590;10.002;2023-05-10T08:17:08;5.73;;;5.13;;
17345;SDS011;8790;53.590;10.002;2023-05-10T08:19:39;5.50;;;4.90;;
17345;SDS011;8790;53.590;10.002;2023-05-10T08:22:11;7.17;;;5.10;;
17345;SDS011;8790;53.590;10.002;2023-05-10T08:24:43;5.20;;;4.70;;
17345;SDS011;8790;53.590;10.002;2023-05-10T08:27:16;5.65;;;4.88;;
17345;SDS011;8790;53.590;10.002;2023-05-10T08:29:48;9.02;;;5.28;;
17345;SDS011;8790;53.590;10.002;2023-05-10T08:32:20;7.37;;;5.50;;
17345;SDS011;8790;53.590;10.002;2023-05-10T08:34:51;6.97;;;5.00;;
17345;SDS011;8790;53.590;10.002;2023-05-10T08:37:23;7.37;;;5.17;;
17345;SDS011;8790;53.590;10.002;2023-05-10T08:39:55;6.43;;;5.30;;
17345;SDS011;8790;53.590;10.002;2023-05-10T08:42:28;6.22;;;5.45;;
17345;SDS011;8790;53.590;10.002;2023-05-10T08:45:02;7.18;;;5.65;;
17345;SDS011;8790;53.590;10.002;2023-05-10T08:47:34;8.87;;;5.63;;
17345;SDS011;8790;53.590;10.002;2023-05-10T08:50:08;5.80;;;5.00;;
17345;SDS011;8790;53.590;10.002;2023-05-10T08:52:41;7.30;;;4.93;;
17345;SDS011;8790;53.590;10.002;2023-05-10T08:55:13;6.53;;;4.93;;
17345;SDS011;8790;53.590;10.002;2023-05-10T08:57:46;7.87;;;5.50;;
17345;SDS011;8790;53.590;10.002;2023-05-10T09:00:18;6.97;;;4.83;;
17345;SDS011;8790;53.590;10.002;2023-05-10T09:02:51;8.53;;;5.30;;
17345;SDS011;8790;53.590;10.002;2023-05-10T09:05:23;8.00;;;4.90;;
17345;SDS011;8790;53.590;10.002;2023-05-10T09:07:55;6.82;;;5.75;;
17345;SDS011;8790;53.590;10.002;2023-05-10T09:10:26;7.10;;;5.80;;
17345;SDS011;8790;53.590;10.002;2023-05-10T09:13:00;6.70;;;5.30;;
17345;SDS011;8790;53.590;10.002;2023-05-10T09:15:32;8.13;;;5.13;;
17345;SDS011;8790;53.590;10.002;2023-05-10T09:18:04;6.10;;;5.53;;
17345;SDS011;8790;53.590;10.002;2023-05-10T09:20:36;6.28;;;5.68;;
17345;SDS011;8790;53.590;10.002;2023-05-10T09:23:08;6.40;;;5.70;;
17345;SDS011;8790;53.590;10.002;2023-05-10T09:25:40;7.13;;;5.77;;
17345;SDS011;8790;53.590;10.002;2023-05-10T09:28:14;6.38;;;5.18;;
17345;SDS011;8790;53.590;10.002;2023-05-10T09:30:46;5.97;;;5.32;;
17345;SDS011;8790;53.590;10.002;2023-05-10T09:33:25;8.75;;;5.05;;
17345;SDS011;8790;53.590;10.002;2023-05-10T09:36:05;8.15;;;5.68;;
17345;SDS011;8790;53.590;10.002;2023-05-10T09:38:47;7.10;;;5.27;;
17345;SDS011;8790;53.590;10.002;2023-05-10T09:41:22;8.98;;;5.53;;
17345;SDS011;8790;53.590;10.002;2023-05-10T09:43:56;7.70;;;5.65;;
17345;SDS011;8790;53.590;10.002;2023-05-10T09:46:27;7.57;;;5.47;;
17345;SDS011;8790;53.590;10.002;2023-05-10T09:48:59;7.47;;;6.32;;
17345;SDS011;8790;53.590;10.002;2023-05-10T09:51:31;9.75;;;6.50;;
17345;SDS011;8790;53.590;10.002;2023-05-10T09:54:09;8.70;;;6.87;;
17345;SDS011;8790;53.590;10.002;2023-05-10T09:56:42;8.35;;;6.85;;
17345;SDS011;8790;53.590;10.002;2023-05-10T09:59:16;6.90;;;6.17;;
17345;SDS011;8790;53.590;10.002;2023-05-10T10:01:49;7.10;;;6.25;;
17345;SDS011;8790;53.590;10.002;2023-05-10T10:04:21;7.67;;;5.77;;
17345;SDS011;8790;53.590;10.002;2023-05-10T10:07:00;7.43;;;6.40;;
17345;SDS011;8790;53.590;10.002;2023-05-10T10:09:34;9.13;;;7.50;;
17345;SDS011;8790;53.590;10.002;2023-05-10T10:12:06;8.13;;;7.17;;
17345;SDS011;8790;53.590;10.002;2023-05-10T10:14:40;10.97;;;7.13;;
17345;SDS011;8790;53.590;10.002;2023-05-10T10:17:12;9.27;;;8.10;;
17345;SDS011;8790;53.590;10.002;2023-05-10T10:19:44;7.90;;;7.07;;
17345;SDS011;8790;53.590;10.002;2023-05-10T10:22:17;8.83;;;7.80;;
17345;SDS011;8790;53.590;10.002;2023-05-10T10:24:50;11.13;;;7.47;;
17345;SDS011;8790;53.590;10.002;2023-05-10T10:27:23;10.02;;;8.10;;
17345;SDS011;8790;53.590;10.002;2023-05-10T10:30:02;9.70;;;8.50;;
17345;SDS011;8790;53.590;10.002;2023-05-10T10:32:45;10.20;;;8.10;;
17345;SDS011;8790;53.590;10.002;2023-05-10T10:35:31;10.93;;;8.13;;
17345;SDS011;8790;53.590;10.002;2023-05-10T10:38:03;10.60;;;8.10;;
17345;SDS011;8790;53.590;10.002;2023-05-10T10:40:38;10.30;;;8.40;;
17345;SDS011;8790;53.590;10.002;2023-05-10T10:46:11;10.50;;;8.10;;
17345;SDS011;8790;53.590;10.002;2023-05-10T10:48:47;9.47;;;8.43;;
17345;SDS011;8790;53.590;10.002;2023-05-10T10:51:19;11.40;;;8.87;;
17345;SDS011;8790;53.590;10.002;2023-05-10T10:53:51;9.17;;;8.23;;
17345;SDS011;8790;53.590;10.002;2023-05-10T10:56:23;9.93;;;8.40;;
17345;SDS011;8790;53.590;10.002;2023-05-10T10:58:56;9.40;;;8.50;;
17345;SDS011;8790;53.590;10.002;2023-05-10T11:01:33;9.83;;;8.83;;
17345;SDS011;8790;53.590;10.002;2023-05-10T11:04:18;10.53;;;9.47;;
17345;SDS011;8790;53.590;10.002;2023-05-10T11:06:50;11.90;;;9.00;;
17345;SDS011;8790;53.590;10.002;2023-05-10T11:09:42;9.47;;;8.57;;
17345;SDS011;8790;53.590;10.002;2023-05-10T11:12:14;10.27;;;8.30;;
17345;SDS011;8790;53.590;10.002;2023-05-10T11:14:49;9.23;;;8.40;;
17345;SDS011;8790;53.590;10.002;2023-05-10T11:17:26;9.63;;;8.63;;
17345;SDS011;8790;53.590;10.002;2023-05-10T11:20:06;12.07;;;8.87;;
17345;SDS011;8790;53.590;10.002;2023-05-10T11:25:46;9.73;;;8.50;;
17345;SDS011;8790;53.590;10.002;2023-05-10T11:28:19;9.67;;;8.67;;
17345;SDS011;8790;53.590;10.002;2023-05-10T11:30:51;9.30;;;8.40;;
17345;SDS011;8790;53.590;10.002;2023-05-10T11:33:24;9.83;;;8.40;;
17345;SDS011;8790;53.590;10.002;2023-05-10T11:35:56;12.70;;;9.47;;
17345;SDS011;8790;53.590;10.002;2023-05-10T11:38:28;12.27;;;9.23;;
17345;SDS011;8790;53.590;10.002;2023-05-10T11:41:03;10.47;;;9.33;;
17345;SDS011;8790;53.590;10.002;2023-05-10T11:43:35;10.10;;;9.10;;
17345;SDS011;8790;53.590;10.002;2023-05-10T11:46:09;10.63;;;9.63;;
17345;SDS011;8790;53.590;10.002;2023-05-10T11:48:44;10.60;;;9.60;;
17345;SDS011;8790;53.590;10.002;2023-05-10T11:51:19;15.20;;;9.77;;
17345;SDS011;8790;53.590;10.002;2023-05-10T11:53:52;10.67;;;9.33;;
17345;SDS011;8790;53.590;10.002;2023-05-10T11:56:25;11.20;;;10.10;;
17345;SDS011;8790;53.590;10.002;2023-05-10T11:58:57;10.57;;;9.57;;
17345;SDS011;8790;53.590;10.002;2023-05-10T12:01:31;12.70;;;10.13;;
17345;SDS011;8790;53.590;10.002;2023-05-10T12:04:05;11.47;;;10.27;;
17345;SDS011;8790;53.590;10.002;2023-05-10T12:06:39;11.20;;;10.00;;
17345;SDS011;8790;53.590;10.002;2023-05-10T12:09:11;10.53;;;9.40;;
17345;SDS011;8790;53.590;10.002;2023-05-10T12:11:43;11.07;;;9.97;;
17345;SDS011;8790;53.590;10.002;2023-05-10T12:14:15;12.43;;;10.97;;
17345;SDS011;8790;53.590;10.002;2023-05-10T12:16:49;10.60;;;9.50;;
17345;SDS011;8790;53.590;10.002;2023-05-10T12:19:23;11.67;;;10.47;;
17345;SDS011;8790;53.590;10.002;2023-05-10T12:21:55;13.13;;;10.53;;
17345;SDS011;8790;53.590;10.002;2023-05-10T12:24:26;12.20;;;10.00;;
17345;SDS011;8790;53.590;10.002;2023-05-10T12:26:58;11.27;;;10.07;;
17345;SDS011;8790;53.590;10.002;2023-05-10T12:29:30;10.83;;;9.83;;
17345;SDS011;8790;53.590;10.002;2023-05-10T12:32:02;10.37;;;9.37;;
17345;SDS011;8790;53.590;10.002;2023-05-10T12:34:35;11.73;;;10.33;;
17345;SDS011;8790;53.590;10.002;2023-05-10T12:37:08;12.20;;;9.90;;
17345;SDS011;8790;53.590;10.002;2023-05-10T12:39:40;11.30;;;9.77;;
17345;SDS011;8790;53.590;10.002;2023-05-10T12:42:13;10.53;;;9.43;;
17345;SDS011;8790;53.590;10.002;2023-05-10T12:44:45;10.83;;;9.37;;
17345;SDS011;8790;53.590;10.002;2023-05-10T12:47:16;10.03;;;9.13;;
17345;SDS011;8790;53.590;10.002;2023-05-10T12:49:49;12.23;;;9.33;;
17345;SDS011;8790;53.590;10.002;2023-05-10T12:52:22;10.40;;;9.40;;
17345;SDS011;8790;53.590;10.002;2023-05-10T12:54:53;10.40;;;9.00;;
17345;SDS011;8790;53.590;10.002;2023-05-10T12:57:25;10.63;;;9.63;;
17345;SDS011;8790;53.590;10.002;2023-05-10T12:59:57;11.03;;;9.40;;
17345;SDS011;8790;53.590;10.002;2023-05-10T13:02:30;11.30;;;9.73;;
17345;SDS011;8790;53.590;10.002;2023-05-10T13:05:04;9.97;;;8.97;;
17345;SDS011;8790;53.590;10.002;2023-05-10T13:07:36;10.77;;;9.70;;
17345;SDS011;8790;53.590;10.002;2023-05-10T13:10:08;10.87;;;9.27;;
17345;SDS011;8790;53.590;10.002;2023-05-10T13:12:40;11.13;;;9.40;;
17345;SDS011;8790;53.590;10.002;2023-05-10T13:15:12;9.13;;;8.23;;
17345;SDS011;8790;53.590;10.002;2023-05-10T13:17:45;9.10;;;8.30;;
17345;SDS011;8790;53.590;10.002;2023-05-10T13:20:18;9.40;;;8.50;;
17345;SDS011;8790;53.590;10.002;2023-05-10T13:22:51;9.00;;;8.10;;
17345;SDS011;8790;53.590;10.002;2023-05-10T13:25:22;9.53;;;7.60;;
17345;SDS011;8790;53.590;10.002;2023-05-10T13:27:54;6.70;;;6.03;;
17345;SDS011;8790;53.590;10.002;2023-05-10T13:30:26;8.13;;;7.33;;
17345;SDS011;8790;53.590;10.002;2023-05-10T13:32:58;7.73;;;6.97;;
17345;SDS011;8790;53.590;10.002;2023-05-10T13:35:31;8.70;;;7.80;;
17345;SDS011;8790;53.590;10.002;2023-05-10T13:38:03;8.80;;;8.00;;
17345;SDS011;8790;53.590;10.002;2023-05-10T13:40:37;9.23;;;8.20;;
17345;SDS011;8790;53.590;10.002;2023-05-10T13:43:09;9.20;;;8.30;;
17345;SDS011;8790;53.590;10.002;2023-05-10T13:45:41;9.67;;;8.77;;
17345;SDS011;8790;53.590;10.002;2023-05-10T13:48:12;9.33;;;8.43;;
17345;SDS011;8790;53.590;10.002;2023-05-10T13:50:45;9.80;;;8.10;;
17345;SDS011;8790;53.590;10.002;2023-05-10T13:53:17;8.90;;;8.07;;
17345;SDS011;8790;53.590;10.002;2023-05-10T13:55:49;9.07;;;8.17;;
17345;SDS011;8790;53.590;10.002;2023-05-10T13:58:21;10.40;;;9.30;;
17345;SDS011;8790;53.590;10.002;2023-05-10T14:00:53;11.07;;;10.02;;
17345;SDS011;8790;53.590;10.002;2023-05-10T14:03:25;10.97;;;9.27;;
17345;SDS011;8790;53.590;10.002;2023-05-10T14:05:58;11.27;;;10.23;;
17345;SDS011;8790;53.590;10.002;2023-05-10T14:08:30;11.30;;;10.10;;
17345;SDS011;8790;53.590;10.002;2023-05-10T14:11:02;11.13;;;10.03;;
17345;SDS011;8790;53.590;10.002;2023-05-10T14:13:33;13.80;;;11.17;;
17345;SDS011;8790;53.590;10.002;2023-05-10T14:16:05;11.48;;;10.20;;
17345;SDS011;8790;53.590;10.002;2023-05-10T14:18:37;11.20;;;10.07;;
17345;SDS011;8790;53.590;10.002;2023-05-10T14:21:10;10.45;;;9.40;;
17345;SDS011;8790;53.590;10.002;2023-05-10T14:23:42;9.90;;;8.90;;
17345;SDS011;8790;53.590;10.002;2023-05-10T14:26:14;9.85;;;8.80;;
17345;SDS011;8790;53.590;10.002;2023-05-10T14:28:46;10.60;;;9.20;;
17345;SDS011;8790;53.590;10.002;2023-05-10T14:31:17;9.40;;;8.50;;
17345;SDS011;8790;53.590;10.002;2023-05-10T14:33:50;8.77;;;7.97;;
17345;SDS011;8790;53.590;10.002;2023-05-10T14:36:23;9.33;;;8.37;;
17345;SDS011;8790;53.590;10.002;2023-05-10T14:38:56;8.75;;;7.95;;
17345;SDS011;8790;53.590;10.002;2023-05-10T14:41:27;8.35;;;7.63;;
17345;SDS011;8790;53.590;10.002;2023-05-10T14:44:00;8.77;;;7.97;;
17345;SDS011;8790;53.590;10.002;2023-05-10T14:46:33;8.38;;;7.57;;
17345;SDS011;8790;53.590;10.002;2023-05-10T14:49:05;9.23;;;8.32;;
17345;SDS011;8790;53.590;10.002;2023-05-10T14:51:38;8.85;;;7.95;;
17345;SDS011;8790;53.590;10.002;2023-05-10T14:54:10;8.93;;;8.03;;
17345;SDS011;8790;53.590;10.002;2023-05-10T14:56:42;8.75;;;7.95;;
17345;SDS011;8790;53.590;10.002;2023-05-10T14:59:14;8.82;;;7.90;;
17345;SDS011;8790;53.590;10.002;2023-05-10T15:01:46;8.60;;;7.70;;
17345;SDS011;8790;53.590;10.002;2023-05-10T15:04:17;7.77;;;7.07;;
17345;SDS011;8790;53.590;10.002;2023-05-10T15:06:50;9.10;;;8.30;;
17345;SDS011;8790;53.590;10.002;2023-05-10T15:09:22;8.00;;;7.30;;
17345;SDS011;8790;53.590;10.002;2023-05-10T15:11:54;7.85;;;7.07;;
17345;SDS011;8790;53.590;10.002;2023-05-10T15:14:25;7.90;;;7.20;;
17345;SDS011;8790;53.590;10.002;2023-05-10T15:16:57;8.35;;;7.55;;
17345;SDS011;8790;53.590;10.002;2023-05-10T15:19:29;7.95;;;7.15;;
17345;SDS011;8790;53.590;10.002;2023-05-10T15:22:05;8.67;;;7.77;;
17345;SDS011;8790;53.590;10.002;2023-05-10T15:24:36;8.30;;;7.45;;
17345;SDS011;8790;53.590;10.002;2023-05-10T15:27:08;8.52;;;7.72;;